createdAt,value
2022-08-07T00:00:53.204Z,982.13
2022-08-07T00:02:41.129Z,982.20
2022-08-07T00:02:53.456Z,982.09
2022-08-07T00:03:53.159Z,982.10
2022-08-07T00:04:53.227Z,982.10
2022-08-07T00:05:53.142Z,982.05
2022-08-07T00:06:53.116Z,982.08
2022-08-07T00:07:59.767Z,982.15
2022-08-07T00:08:53.094Z,982.14
2022-08-07T00:10:11.075Z,982.12
2022-08-07T00:10:58.229Z,982.16
2022-08-07T00:11:55.556Z,982.14
2022-08-07T00:13:00.726Z,982.17
2022-08-07T00:13:53.027Z,982.16
2022-08-07T00:14:53.015Z,982.17
2022-08-07T00:15:53.006Z,982.12
2022-08-07T00:16:52.989Z,982.13
2022-08-07T00:17:52.976Z,982.15
2022-08-07T00:18:52.951Z,982.16
2022-08-07T00:20:02.475Z,982.09
2022-08-07T00:20:52.925Z,982.19
2022-08-07T00:21:56.775Z,982.15
2022-08-07T00:22:53.924Z,982.17
2022-08-07T00:23:52.894Z,982.13
2022-08-07T00:24:52.876Z,982.12
2022-08-07T00:26:00.147Z,982.18
2022-08-07T00:27:06.567Z,982.12
2022-08-07T00:27:56.478Z,982.17
2022-08-07T00:28:56.549Z,982.15
2022-08-07T00:29:52.807Z,982.24
2022-08-07T00:30:52.795Z,982.16
2022-08-07T00:31:52.785Z,982.25
2022-08-07T00:32:52.768Z,982.24
2022-08-07T00:33:52.761Z,982.32
2022-08-07T00:34:52.737Z,982.25
2022-08-07T00:35:52.730Z,982.21
2022-08-07T00:36:52.714Z,982.19
2022-08-07T00:37:52.703Z,982.26
2022-08-07T00:38:52.685Z,982.26
2022-08-07T00:39:54.642Z,982.26
2022-08-07T00:40:52.657Z,982.24
2022-08-07T00:41:53.450Z,982.36
2022-08-07T00:42:52.637Z,982.27
2022-08-07T00:44:01.747Z,982.34
2022-08-07T00:44:52.605Z,982.28
2022-08-07T00:45:52.616Z,982.29
2022-08-07T00:46:52.581Z,982.21
2022-08-07T00:48:09.518Z,982.26
2022-08-07T00:48:52.557Z,982.20
2022-08-07T00:50:19.475Z,982.10
2022-08-07T00:50:52.519Z,982.23
2022-08-07T00:51:58.556Z,982.20
2022-08-07T00:52:53.120Z,982.13
2022-08-07T00:53:55.241Z,982.12
2022-08-07T00:54:53.549Z,982.16
2022-08-07T00:56:02.314Z,982.09
2022-08-07T00:56:52.440Z,982.10
2022-08-07T00:57:55.547Z,982.08
2022-08-07T00:58:52.417Z,982.20
2022-08-07T00:59:52.405Z,982.10
2022-08-07T01:00:54.007Z,982.18
2022-08-07T01:01:52.402Z,982.19
2022-08-07T01:02:52.362Z,982.11
2022-08-07T01:03:56.509Z,982.13
2022-08-07T01:04:52.329Z,982.10
2022-08-07T01:05:53.563Z,982.10
2022-08-07T01:06:52.307Z,982.04
2022-08-07T01:07:52.301Z,982.10
2022-08-07T01:08:53.283Z,982.05
2022-08-07T01:10:06.557Z,982.05
2022-08-07T01:10:56.450Z,982.03
2022-08-07T01:12:28.077Z,982.11
2022-08-07T01:12:54.631Z,981.98
2022-08-07T01:13:55.939Z,982.03
2022-08-07T01:14:57.069Z,981.94
2022-08-07T01:16:05.224Z,982.02
2022-08-07T01:16:52.166Z,982.01
2022-08-07T01:17:52.163Z,982.07
2022-08-07T01:18:52.141Z,982.02
2022-08-07T01:19:54.493Z,982.06
2022-08-07T01:20:57.372Z,982.01
2022-08-07T01:21:53.335Z,981.95
2022-08-07T01:23:00.610Z,981.94
2022-08-07T01:23:53.100Z,981.90
2022-08-07T01:24:52.078Z,981.87
2022-08-07T01:25:56.016Z,981.95
2022-08-07T01:26:52.701Z,981.94
2022-08-07T01:27:52.030Z,981.90
2022-08-07T01:28:52.011Z,981.90
2022-08-07T01:29:52.005Z,981.99
2022-08-07T01:30:52.079Z,981.97
2022-08-07T01:31:51.973Z,981.92
2022-08-07T01:32:51.949Z,981.93
2022-08-07T01:33:55.160Z,981.93
2022-08-07T01:34:51.927Z,981.96
2022-08-07T01:35:54.055Z,981.98
2022-08-07T01:36:57.625Z,981.96
2022-08-07T01:37:52.911Z,981.94
2022-08-07T01:38:51.869Z,981.98
2022-08-07T01:39:51.888Z,981.92
2022-08-07T01:40:51.845Z,981.89
2022-08-07T01:42:01.691Z,981.92
2022-08-07T01:42:58.653Z,981.88
2022-08-07T01:43:51.802Z,981.86
2022-08-07T01:44:51.784Z,981.88
2022-08-07T01:45:54.558Z,981.85
2022-08-07T01:46:51.762Z,981.86
2022-08-07T01:48:17.647Z,981.78
2022-08-07T01:48:51.734Z,981.78
2022-08-07T01:49:53.557Z,981.79
2022-08-07T01:50:51.713Z,981.82
2022-08-07T01:52:03.417Z,981.78
2022-08-07T01:52:54.973Z,981.76
2022-08-07T01:54:12.373Z,981.73
2022-08-07T01:54:51.650Z,981.74
2022-08-07T01:55:51.634Z,981.80
2022-08-07T01:56:51.627Z,981.84
2022-08-07T01:58:06.155Z,981.79
2022-08-07T01:58:51.591Z,981.89
2022-08-07T01:59:51.583Z,981.92
2022-08-07T02:00:51.634Z,981.81
2022-08-07T02:02:01.994Z,981.84
2022-08-07T02:03:19.016Z,981.82
2022-08-07T02:03:51.590Z,981.77
2022-08-07T02:06:08.854Z,981.83
2022-08-07T02:07:09.128Z,981.81
2022-08-07T02:08:08.094Z,981.76
2022-08-07T02:09:08.079Z,981.84
2022-08-07T02:10:08.061Z,981.82
2022-08-07T02:11:09.069Z,981.79
2022-08-07T02:12:08.036Z,981.79
2022-08-07T02:13:08.018Z,981.69
2022-08-07T02:14:08.011Z,981.71
2022-08-07T02:15:07.995Z,981.82
2022-08-07T02:16:07.980Z,981.80
2022-08-07T02:17:07.960Z,981.76
2022-08-07T02:18:07.960Z,981.80
2022-08-07T02:20:04.500Z,981.91
2022-08-07T02:20:09.870Z,981.86
2022-08-07T02:21:07.918Z,981.79
2022-08-07T02:22:08.920Z,981.75
2022-08-07T02:23:07.885Z,981.73
2022-08-07T02:24:07.870Z,981.69
2022-08-07T02:25:13.822Z,981.70
2022-08-07T02:26:31.081Z,981.65
2022-08-07T02:27:08.856Z,981.66
2022-08-07T02:28:07.820Z,981.75
2022-08-07T02:29:07.800Z,981.65
2022-08-07T02:30:08.822Z,981.69
2022-08-07T02:31:18.738Z,981.80
2022-08-07T02:32:10.876Z,981.72
2022-08-07T02:33:09.369Z,981.76
2022-08-07T02:34:11.640Z,981.67
2022-08-07T02:35:09.088Z,981.75
2022-08-07T02:36:26.896Z,981.74
2022-08-07T02:37:08.715Z,981.69
2022-08-07T02:38:07.678Z,981.74
2022-08-07T02:39:16.161Z,981.79
2022-08-07T02:40:30.472Z,981.86
2022-08-07T02:41:10.685Z,981.81
2022-08-07T02:42:10.147Z,981.79
2022-08-07T02:43:07.900Z,981.72
2022-08-07T02:44:07.599Z,981.70
2022-08-07T02:45:57.555Z,981.73
2022-08-07T02:46:07.570Z,981.74
2022-08-07T02:47:07.558Z,981.71
2022-08-07T02:48:10.243Z,981.75
2022-08-07T02:49:07.534Z,981.88
2022-08-07T02:50:07.515Z,981.83
2022-08-07T02:51:07.513Z,981.87
2022-08-07T02:52:07.490Z,981.85
2022-08-07T02:53:07.473Z,981.80
2022-08-07T02:54:07.464Z,981.88
2022-08-07T02:55:27.879Z,981.87
2022-08-07T02:57:30.956Z,981.86
2022-08-07T02:59:17.096Z,981.85
2022-08-07T03:00:18.337Z,981.84
2022-08-07T03:03:07.109Z,981.84
2022-08-07T03:04:12.818Z,981.82
2022-08-07T03:05:07.076Z,981.87
2022-08-07T03:06:07.073Z,981.87
2022-08-07T03:07:10.605Z,981.83
2022-08-07T03:08:10.083Z,981.79
2022-08-07T03:09:07.020Z,981.78
2022-08-07T03:10:07.008Z,981.85
2022-08-07T03:11:06.994Z,981.88
2022-08-07T03:12:06.986Z,981.78
2022-08-07T03:13:06.966Z,981.76
2022-08-07T03:14:06.958Z,981.76
2022-08-07T03:15:07.758Z,981.76
2022-08-07T03:16:06.938Z,981.73
2022-08-07T03:17:08.679Z,981.76
2022-08-07T03:18:06.912Z,981.73
2022-08-07T03:19:06.891Z,981.75
2022-08-07T03:20:06.876Z,981.73
2022-08-07T03:21:08.918Z,981.73
2022-08-07T03:22:06.863Z,981.76
2022-08-07T03:23:06.844Z,981.73
2022-08-07T03:24:20.932Z,981.68
2022-08-07T03:25:06.814Z,981.68
2022-08-07T03:26:06.803Z,981.67
2022-08-07T03:27:08.965Z,981.76
2022-08-07T03:28:09.536Z,981.76
2022-08-07T03:29:10.545Z,981.75
2022-08-07T03:30:06.748Z,981.70
2022-08-07T03:31:06.726Z,981.70
2022-08-07T03:32:06.715Z,981.73
2022-08-07T03:33:07.908Z,981.70
2022-08-07T03:34:06.693Z,981.74
2022-08-07T03:35:17.795Z,981.74
2022-08-07T03:36:06.670Z,981.76
2022-08-07T03:37:11.912Z,981.72
2022-08-07T03:38:06.641Z,981.74
2022-08-07T03:39:06.693Z,981.74
2022-08-07T03:40:15.741Z,981.78
2022-08-07T03:41:06.600Z,981.78
2022-08-07T03:42:06.589Z,981.75
2022-08-07T03:43:10.092Z,981.76
2022-08-07T03:44:06.567Z,981.79
2022-08-07T03:45:06.549Z,981.73
2022-08-07T03:46:10.393Z,981.78
2022-08-07T03:47:10.824Z,981.74
2022-08-07T03:48:10.129Z,981.77
2022-08-07T03:49:06.488Z,981.72
2022-08-07T03:50:06.475Z,981.75
2022-08-07T03:51:06.470Z,981.77
2022-08-07T03:52:06.453Z,981.83
2022-08-07T03:53:06.918Z,981.77
2022-08-07T03:54:36.303Z,981.78
2022-08-07T03:55:07.849Z,981.77
2022-08-07T03:56:06.400Z,981.79
2022-08-07T03:57:07.444Z,981.77
2022-08-07T03:58:34.531Z,981.76
2022-08-07T03:59:09.606Z,981.77
2022-08-07T04:00:06.349Z,981.74
2022-08-07T04:01:07.352Z,981.87
2022-08-07T04:02:06.317Z,981.85
2022-08-07T04:03:06.311Z,981.85
2022-08-07T04:04:06.329Z,981.88
2022-08-07T04:05:06.290Z,981.89
2022-08-07T04:06:06.267Z,981.92
2022-08-07T04:07:16.732Z,981.89
2022-08-07T04:08:07.267Z,981.94
2022-08-07T04:09:06.230Z,981.92
2022-08-07T04:10:06.210Z,981.89
2022-08-07T04:12:24.747Z,981.98
2022-08-07T04:12:26.963Z,981.97
2022-08-07T04:13:06.178Z,981.88
2022-08-07T04:14:09.396Z,981.90
2022-08-07T04:15:06.158Z,981.98
2022-08-07T04:16:06.139Z,981.91
2022-08-07T04:17:19.951Z,981.90
2022-08-07T04:18:58.033Z,981.91
2022-08-07T04:19:12.698Z,981.89
2022-08-07T04:20:06.088Z,981.89
2022-08-07T04:21:07.378Z,981.95
2022-08-07T04:22:12.161Z,981.88
2022-08-07T04:23:06.253Z,981.91
2022-08-07T04:24:07.259Z,981.93
2022-08-07T04:25:08.721Z,981.93
2022-08-07T04:26:07.031Z,981.92
2022-08-07T04:27:05.997Z,981.90
2022-08-07T04:28:05.979Z,981.95
2022-08-07T04:29:05.966Z,981.86
2022-08-07T04:30:13.398Z,981.92
2022-08-07T04:31:05.936Z,981.93
2022-08-07T04:32:10.814Z,981.89
2022-08-07T04:33:07.210Z,981.89
2022-08-07T04:34:05.896Z,981.89
2022-08-07T04:35:06.312Z,981.95
2022-08-07T04:36:06.449Z,981.94
2022-08-07T04:37:08.104Z,982.00
2022-08-07T04:38:06.770Z,981.93
2022-08-07T04:39:05.885Z,981.95
2022-08-07T04:40:05.827Z,981.91
2022-08-07T04:41:05.811Z,981.96
2022-08-07T04:42:05.794Z,981.99
2022-08-07T04:43:05.781Z,981.99
2022-08-07T04:44:11.784Z,982.06
2022-08-07T04:45:08.187Z,982.06
2022-08-07T04:46:05.739Z,982.12
2022-08-07T04:47:08.163Z,982.10
2022-08-07T04:48:10.578Z,982.15
2022-08-07T04:49:14.869Z,982.11
2022-08-07T04:50:05.684Z,982.07
2022-08-07T04:51:05.686Z,982.09
2022-08-07T04:52:05.671Z,982.02
2022-08-07T04:53:05.659Z,982.01
2022-08-07T04:54:06.940Z,982.06
2022-08-07T04:55:15.478Z,982.11
2022-08-07T04:58:14.034Z,982.08
2022-08-07T04:58:15.417Z,982.05
2022-08-07T04:58:42.329Z,982.07
2022-08-07T04:59:17.769Z,982.06
2022-08-07T05:00:09.792Z,982.10
2022-08-07T05:01:05.588Z,982.03
2022-08-07T05:02:05.526Z,982.11
2022-08-07T05:03:16.718Z,982.02
2022-08-07T05:04:07.951Z,982.09
2022-08-07T05:05:11.298Z,982.03
2022-08-07T05:06:16.336Z,982.09
2022-08-07T05:07:19.770Z,982.09
2022-08-07T05:08:05.445Z,982.10
2022-08-07T05:09:06.206Z,982.10
2022-08-07T05:10:05.426Z,982.08
2022-08-07T05:11:05.417Z,982.02
2022-08-07T05:12:05.399Z,982.01
2022-08-07T05:14:44.924Z,982.06
2022-08-07T05:14:52.380Z,981.97
2022-08-07T05:15:05.380Z,981.96
2022-08-07T05:16:05.348Z,982.02
2022-08-07T05:17:05.860Z,982.01
2022-08-07T05:18:08.537Z,982.04
2022-08-07T05:19:05.303Z,982.08
2022-08-07T05:20:09.649Z,982.06
2022-08-07T05:21:05.279Z,982.06
2022-08-07T05:22:05.272Z,982.03
2022-08-07T05:23:05.253Z,982.11
2022-08-07T05:24:06.265Z,982.03
2022-08-07T05:25:08.659Z,982.07
2022-08-07T05:26:13.849Z,982.09
2022-08-07T05:27:05.204Z,982.02
2022-08-07T05:28:19.872Z,982.10
2022-08-07T05:29:05.175Z,982.06
2022-08-07T05:30:05.159Z,982.14
2022-08-07T05:31:05.154Z,982.12
2022-08-07T05:32:05.131Z,982.10
2022-08-07T05:33:05.134Z,982.06
2022-08-07T05:34:05.798Z,982.17
2022-08-07T05:35:05.099Z,982.11
2022-08-07T05:36:05.077Z,982.12
2022-08-07T05:37:05.713Z,982.13
2022-08-07T05:38:08.432Z,982.16
2022-08-07T05:40:05.025Z,982.18
2022-08-07T05:40:18.558Z,982.15
2022-08-07T05:41:12.169Z,982.19
2022-08-07T05:42:07.510Z,982.22
2022-08-07T05:43:04.986Z,982.26
2022-08-07T05:44:11.971Z,982.25
2022-08-07T05:45:14.370Z,982.25
2022-08-07T05:46:04.944Z,982.21
2022-08-07T05:47:18.092Z,982.20
2022-08-07T05:48:05.217Z,982.21
2022-08-07T05:49:12.028Z,982.18
2022-08-07T05:50:04.891Z,982.19
2022-08-07T05:51:04.880Z,982.10
2022-08-07T05:52:04.858Z,982.13
2022-08-07T05:53:04.849Z,982.18
2022-08-07T05:54:12.225Z,982.16
2022-08-07T05:55:10.820Z,982.21
2022-08-07T05:56:06.172Z,982.19
2022-08-07T05:57:04.796Z,982.15
2022-08-07T05:58:04.783Z,982.14
2022-08-07T05:59:04.777Z,982.21
2022-08-07T06:00:04.767Z,982.16
2022-08-07T06:01:05.159Z,982.24
2022-08-07T06:02:04.833Z,982.23
2022-08-07T06:03:04.719Z,982.10
2022-08-07T06:04:04.709Z,982.18
2022-08-07T06:05:04.695Z,982.10
2022-08-07T06:06:04.877Z,982.12
2022-08-07T06:07:04.683Z,982.08
2022-08-07T06:08:14.333Z,982.07
2022-08-07T06:09:05.665Z,982.01
2022-08-07T06:10:06.196Z,982.05
2022-08-07T06:11:04.611Z,982.14
2022-08-07T06:12:04.597Z,982.10
2022-08-07T06:13:04.605Z,982.09
2022-08-07T06:14:12.652Z,982.07
2022-08-07T06:15:05.727Z,982.08
2022-08-07T06:16:04.539Z,982.09
2022-08-07T06:17:07.115Z,982.13
2022-08-07T06:18:04.515Z,982.09
2022-08-07T06:19:06.586Z,982.08
2022-08-07T06:20:04.748Z,982.08
2022-08-07T06:22:15.600Z,982.06
2022-08-07T06:22:15.646Z,982.05
2022-08-07T06:23:24.624Z,982.09
2022-08-07T06:24:48.190Z,982.07
2022-08-07T06:25:04.428Z,982.05
2022-08-07T06:26:04.420Z,982.07
2022-08-07T06:27:04.397Z,982.05
2022-08-07T06:28:04.675Z,982.12
2022-08-07T06:29:06.417Z,982.06
2022-08-07T06:30:04.369Z,982.08
2022-08-07T06:31:04.354Z,982.10
2022-08-07T06:32:04.591Z,982.11
2022-08-07T06:33:04.326Z,982.06
2022-08-07T06:34:04.309Z,982.13
2022-08-07T06:35:17.880Z,982.16
2022-08-07T06:36:06.544Z,982.14
2022-08-07T06:37:04.269Z,982.01
2022-08-07T06:38:04.249Z,982.06
2022-08-07T06:40:16.867Z,981.96
2022-08-07T06:40:17.561Z,981.99
2022-08-07T06:41:04.301Z,982.00
2022-08-07T06:42:04.318Z,982.08
2022-08-07T06:43:04.194Z,982.00
2022-08-07T06:44:06.724Z,982.02
2022-08-07T06:45:05.189Z,982.00
2022-08-07T06:46:04.148Z,981.98
2022-08-07T06:47:12.506Z,981.97
2022-08-07T06:48:04.123Z,981.95
2022-08-07T06:49:04.561Z,981.97
2022-08-07T06:50:04.128Z,981.96
2022-08-07T06:51:08.285Z,981.90
2022-08-07T06:52:07.604Z,981.90
2022-08-07T06:53:04.543Z,981.91
2022-08-07T06:55:29.493Z,981.93
2022-08-07T06:55:33.523Z,981.98
2022-08-07T06:56:04.012Z,981.94
2022-08-07T06:57:04.005Z,981.91
2022-08-07T06:58:04.281Z,981.92
2022-08-07T07:00:12.710Z,981.96
2022-08-07T07:00:14.489Z,981.94
2022-08-07T07:01:03.957Z,981.92
2022-08-07T07:02:03.975Z,981.98
2022-08-07T07:03:10.954Z,981.90
2022-08-07T07:04:28.257Z,981.82
2022-08-07T07:05:04.917Z,981.92
2022-08-07T07:06:06.244Z,981.92
2022-08-07T07:07:19.058Z,981.89
2022-08-07T07:08:07.188Z,981.83
2022-08-07T07:09:03.854Z,981.83
2022-08-07T07:10:03.838Z,981.91
2022-08-07T07:11:13.975Z,981.88
2022-08-07T07:12:07.515Z,981.91
2022-08-07T07:13:04.817Z,981.95
2022-08-07T07:14:03.781Z,981.89
2022-08-07T07:15:03.828Z,981.90
2022-08-07T07:16:03.751Z,981.84
2022-08-07T07:17:03.743Z,981.92
2022-08-07T07:18:05.539Z,981.91
2022-08-07T07:19:04.289Z,981.92
2022-08-07T07:20:03.698Z,981.82
2022-08-07T07:21:03.995Z,981.82
2022-08-07T07:22:11.946Z,981.85
2022-08-07T07:24:09.661Z,981.85
2022-08-07T07:24:10.622Z,981.84
2022-08-07T07:26:33.096Z,981.84
2022-08-07T07:26:35.368Z,981.82
2022-08-07T07:27:03.612Z,981.85
2022-08-07T07:28:07.583Z,981.87
2022-08-07T07:29:39.391Z,981.83
2022-08-07T07:30:09.430Z,981.82
2022-08-07T07:31:03.561Z,981.80
2022-08-07T07:32:03.539Z,981.85
2022-08-07T07:33:03.533Z,981.82
2022-08-07T07:34:03.513Z,981.79
2022-08-07T07:35:04.060Z,981.74
2022-08-07T07:36:05.411Z,981.76
2022-08-07T07:37:14.713Z,981.74
2022-08-07T07:38:04.844Z,981.65
2022-08-07T07:39:03.500Z,981.62
2022-08-07T07:40:03.498Z,981.52
2022-08-07T07:41:03.424Z,981.57
2022-08-07T07:42:13.710Z,981.51
2022-08-07T07:43:11.585Z,981.59
2022-08-07T07:44:17.458Z,981.55
2022-08-07T07:45:03.375Z,981.58
2022-08-07T07:46:39.984Z,981.53
2022-08-07T07:47:14.267Z,981.60
2022-08-07T07:48:04.367Z,981.58
2022-08-07T07:50:29.727Z,981.56
2022-08-07T07:50:33.878Z,981.63
2022-08-07T07:51:03.297Z,981.50
2022-08-07T07:52:03.387Z,981.52
2022-08-07T07:53:03.269Z,981.55
2022-08-07T07:54:03.252Z,981.44
2022-08-07T07:55:03.263Z,981.45
2022-08-07T07:56:03.221Z,981.48
2022-08-07T07:57:03.211Z,981.46
2022-08-07T07:58:03.197Z,981.34
2022-08-07T07:59:03.187Z,981.38
2022-08-07T08:00:03.171Z,981.34
2022-08-07T08:01:03.234Z,981.38
2022-08-07T08:02:10.216Z,981.40
2022-08-07T08:03:05.800Z,981.39
2022-08-07T08:04:05.994Z,981.30
2022-08-07T08:05:03.117Z,981.28
2022-08-07T08:06:03.104Z,981.33
2022-08-07T08:07:07.549Z,981.31
2022-08-07T08:08:03.194Z,981.31
2022-08-07T08:09:03.059Z,981.30
2022-08-07T08:10:04.902Z,981.30
2022-08-07T08:11:03.034Z,981.28
2022-08-07T08:12:05.280Z,981.31
2022-08-07T08:13:03.211Z,981.20
2022-08-07T08:14:02.998Z,981.24
2022-08-07T08:15:07.096Z,981.20
2022-08-07T08:16:02.974Z,981.25
2022-08-07T08:17:32.382Z,981.31
2022-08-07T08:18:17.371Z,981.25
2022-08-07T08:19:17.907Z,981.23
2022-08-07T08:20:18.994Z,981.26
2022-08-07T08:21:02.915Z,981.28
2022-08-07T08:22:03.904Z,981.19
2022-08-07T08:23:02.885Z,981.20
2022-08-07T08:24:02.875Z,981.27
2022-08-07T08:25:18.276Z,981.25
2022-08-07T08:27:05.928Z,981.30
2022-08-07T08:27:20.528Z,981.19
2022-08-07T08:28:03.906Z,981.29
2022-08-07T08:29:02.807Z,981.33
2022-08-07T08:30:03.803Z,981.34
2022-08-07T08:31:02.779Z,981.28
2022-08-07T08:32:18.886Z,981.21
2022-08-07T08:33:03.023Z,981.22
2022-08-07T08:34:02.747Z,981.24
2022-08-07T08:35:02.735Z,981.27
2022-08-07T08:36:02.754Z,981.18
2022-08-07T08:37:02.713Z,981.17
2022-08-07T08:38:03.433Z,981.21
2022-08-07T08:39:02.922Z,981.17
2022-08-07T08:40:02.750Z,981.16
2022-08-07T08:41:02.774Z,981.18
2022-08-07T08:42:02.649Z,981.20
2022-08-07T08:43:02.636Z,981.17
2022-08-07T08:44:02.627Z,981.15
2022-08-07T08:45:04.174Z,981.12
2022-08-07T08:46:02.602Z,981.16
2022-08-07T08:47:02.588Z,981.21
2022-08-07T08:48:02.576Z,981.16
2022-08-07T08:49:02.572Z,981.10
2022-08-07T08:50:05.575Z,981.04
2022-08-07T08:51:03.253Z,981.06
2022-08-07T08:52:14.512Z,981.05
2022-08-07T08:53:02.534Z,981.14
2022-08-07T08:54:02.500Z,981.15
2022-08-07T08:55:04.737Z,981.12
2022-08-07T08:56:02.478Z,981.12
2022-08-07T08:57:02.459Z,981.14
2022-08-07T08:58:02.457Z,980.98
2022-08-07T08:59:06.541Z,981.15
2022-08-07T09:00:02.432Z,981.09
2022-08-07T09:01:02.509Z,981.05
2022-08-07T09:02:02.540Z,981.11
2022-08-07T09:03:05.212Z,981.06
2022-08-07T09:04:02.391Z,981.14
2022-08-07T09:05:02.367Z,981.06
2022-08-07T09:06:02.369Z,981.12
2022-08-07T09:07:02.361Z,981.04
2022-08-07T09:08:02.333Z,981.18
2022-08-07T09:09:02.318Z,981.11
2022-08-07T09:10:03.234Z,981.07
2022-08-07T09:11:02.295Z,981.09
2022-08-07T09:12:30.148Z,981.08
2022-08-07T09:13:02.275Z,981.01
2022-08-07T09:14:02.265Z,981.09
2022-08-07T09:16:22.556Z,981.06
2022-08-07T09:16:23.066Z,981.05
2022-08-07T09:17:02.219Z,980.98
2022-08-07T09:18:09.869Z,981.02
2022-08-07T09:19:03.478Z,981.01
2022-08-07T09:20:02.193Z,980.98
2022-08-07T09:21:02.170Z,980.94
2022-08-07T09:22:23.054Z,980.93
2022-08-07T09:24:33.364Z,980.93
2022-08-07T09:24:33.475Z,980.88
2022-08-07T09:25:07.116Z,980.97
2022-08-07T09:26:02.121Z,980.90
2022-08-07T09:27:04.654Z,980.86
2022-08-07T09:28:02.129Z,980.78
2022-08-07T09:30:02.042Z,980.84
2022-08-07T09:30:08.455Z,980.83
2022-08-07T09:31:03.045Z,980.70
2022-08-07T09:32:02.047Z,980.74
2022-08-07T09:33:05.278Z,980.76
2022-08-07T09:34:02.024Z,980.75
2022-08-07T09:35:04.387Z,980.76
2022-08-07T09:36:05.956Z,980.65
2022-08-07T09:37:01.988Z,980.76
2022-08-07T09:38:01.973Z,980.72
2022-08-07T09:39:11.506Z,980.78
2022-08-07T09:40:02.047Z,980.77
2022-08-07T09:41:01.947Z,980.77
2022-08-07T09:42:05.771Z,980.83
2022-08-07T09:43:01.910Z,980.82
2022-08-07T09:44:05.887Z,980.80
2022-08-07T09:46:29.070Z,980.82
2022-08-07T09:47:26.254Z,980.82
2022-08-07T09:47:54.991Z,980.84
2022-08-07T09:48:05.196Z,980.85
2022-08-07T09:50:00.531Z,980.81
2022-08-07T09:50:18.822Z,980.74
2022-08-07T09:51:01.824Z,980.77
2022-08-07T09:52:16.189Z,980.77
2022-08-07T09:53:01.807Z,980.89
2022-08-07T09:54:02.870Z,980.79
2022-08-07T09:55:01.776Z,980.74
2022-08-07T09:56:04.147Z,980.67
2022-08-07T09:57:01.749Z,980.62
2022-08-07T09:58:01.751Z,980.59
2022-08-07T09:59:01.728Z,980.64
2022-08-07T10:00:01.970Z,980.58
2022-08-07T10:01:01.704Z,980.70
2022-08-07T10:02:01.697Z,980.60
2022-08-07T10:03:08.246Z,980.71
2022-08-07T10:04:13.920Z,980.56
2022-08-07T10:05:12.394Z,980.61
2022-08-07T10:06:05.393Z,980.60
2022-08-07T10:07:01.650Z,980.56
2022-08-07T10:08:02.313Z,980.67
2022-08-07T10:09:01.622Z,980.53
2022-08-07T10:10:02.965Z,980.54
2022-08-07T10:11:59.801Z,980.57
2022-08-07T10:12:10.522Z,980.54
2022-08-07T10:13:01.572Z,980.67
2022-08-07T10:14:02.435Z,980.54
2022-08-07T10:15:01.549Z,980.53
2022-08-07T10:16:01.551Z,980.47
2022-08-07T10:17:01.567Z,980.44
2022-08-07T10:18:03.224Z,980.39
2022-08-07T10:19:01.500Z,980.41
2022-08-07T10:20:01.491Z,980.45
2022-08-07T10:21:01.503Z,980.35
2022-08-07T10:22:15.647Z,980.34
2022-08-07T10:23:01.453Z,980.27
2022-08-07T10:24:05.252Z,980.19
2022-08-07T10:25:01.428Z,980.18
2022-08-07T10:26:01.425Z,980.12
2022-08-07T10:27:01.403Z,980.15
2022-08-07T10:28:02.475Z,980.11
2022-08-07T10:29:01.381Z,980.19
2022-08-07T10:30:01.925Z,980.18
2022-08-07T10:31:01.362Z,980.07
2022-08-07T10:32:01.356Z,980.02
2022-08-07T10:33:01.363Z,980.06
2022-08-07T10:34:04.966Z,979.92
2022-08-07T10:35:01.314Z,980.00
2022-08-07T10:36:05.552Z,979.95
2022-08-07T10:37:03.963Z,979.97
2022-08-07T10:38:21.164Z,980.01
2022-08-07T10:39:01.316Z,979.91
2022-08-07T10:40:05.697Z,979.92
2022-08-07T10:41:01.255Z,979.96
2022-08-07T10:42:09.855Z,979.91
2022-08-07T10:43:01.222Z,979.90
2022-08-07T10:44:07.410Z,979.92
2022-08-07T10:45:02.250Z,979.87
2022-08-07T10:46:01.195Z,979.82
2022-08-07T10:47:01.178Z,979.88
2022-08-07T10:48:03.523Z,979.94
2022-08-07T10:49:01.156Z,979.79
2022-08-07T10:50:01.150Z,979.78
2022-08-07T10:51:01.234Z,979.84
2022-08-07T10:52:13.186Z,979.86
2022-08-07T10:53:04.116Z,979.95
2022-08-07T10:54:01.112Z,979.84
2022-08-07T10:55:02.035Z,979.86
2022-08-07T10:56:02.466Z,979.92
2022-08-07T10:57:01.070Z,979.93
2022-08-07T10:58:01.064Z,979.84
2022-08-07T10:59:01.045Z,979.85
2022-08-07T11:00:01.041Z,979.84
2022-08-07T11:01:01.077Z,979.83
2022-08-07T11:02:05.096Z,979.82
2022-08-07T11:03:02.118Z,979.79
2022-08-07T11:04:16.485Z,979.77
2022-08-07T11:05:08.523Z,979.71
2022-08-07T11:06:00.974Z,979.64
2022-08-07T11:07:00.962Z,979.63
2022-08-07T11:08:03.513Z,979.73
2022-08-07T11:09:00.943Z,979.71
2022-08-07T11:10:06.962Z,979.80
2022-08-07T11:11:01.951Z,979.74
2022-08-07T11:12:00.917Z,979.65
2022-08-07T11:13:02.227Z,979.57
2022-08-07T11:14:45.087Z,979.60
2022-08-07T11:15:01.217Z,979.61
2022-08-07T11:16:00.933Z,979.60
2022-08-07T11:17:07.120Z,979.62
2022-08-07T11:18:03.688Z,979.56
2022-08-07T11:19:00.835Z,979.56
2022-08-07T11:20:03.366Z,979.52
2022-08-07T11:21:00.815Z,979.58
2022-08-07T11:22:00.807Z,979.62
2022-08-07T11:23:01.385Z,979.63
2022-08-07T11:24:00.779Z,979.61
2022-08-07T11:25:06.517Z,979.63
2022-08-07T11:26:06.282Z,979.64
2022-08-07T11:27:01.321Z,979.66
2022-08-07T11:28:03.933Z,979.73
2022-08-07T11:29:00.725Z,979.62
2022-08-07T11:30:17.947Z,979.70
2022-08-07T11:31:01.749Z,979.68
2022-08-07T11:32:00.696Z,979.68
2022-08-07T11:33:00.682Z,979.73
2022-08-07T11:34:00.895Z,979.80
2022-08-07T11:35:00.658Z,979.81
2022-08-07T11:36:01.450Z,979.81
2022-08-07T11:37:00.687Z,979.78
2022-08-07T11:38:12.550Z,979.79
2022-08-07T11:39:01.700Z,979.81
2022-08-07T11:40:03.793Z,979.84
2022-08-07T11:41:00.588Z,979.71
2022-08-07T11:42:02.905Z,979.81
2022-08-07T11:43:00.569Z,979.74
2022-08-07T11:44:12.422Z,979.75
2022-08-07T11:45:00.545Z,979.66
2022-08-07T11:46:00.542Z,979.76
2022-08-07T11:47:00.535Z,979.80
2022-08-07T11:48:02.608Z,979.73
2022-08-07T11:49:28.686Z,979.89
2022-08-07T11:50:31.306Z,979.88
2022-08-07T11:51:01.512Z,979.83
2022-08-07T11:52:00.478Z,979.81
2022-08-07T11:53:00.461Z,979.87
2022-08-07T11:54:02.282Z,979.89
2022-08-07T11:55:01.191Z,979.86
2022-08-07T11:56:11.957Z,979.79
2022-08-07T11:57:00.419Z,979.76
2022-08-07T11:58:01.625Z,979.82
2022-08-07T11:59:00.398Z,979.74
2022-08-07T12:00:11.298Z,979.78
2022-08-07T12:01:05.272Z,979.76
2022-08-07T12:02:00.959Z,979.81
2022-08-07T12:03:00.388Z,979.76
2022-08-07T12:04:00.362Z,979.83
2022-08-07T12:05:00.327Z,979.79
2022-08-07T12:06:00.319Z,979.74
2022-08-07T12:07:08.093Z,979.72
2022-08-07T12:08:04.199Z,979.71
2022-08-07T12:09:00.279Z,979.70
2022-08-07T12:10:02.188Z,979.76
2022-08-07T12:11:08.393Z,979.88
2022-08-07T12:12:09.110Z,979.84
2022-08-07T12:13:00.236Z,979.82
2022-08-07T12:14:00.232Z,979.79
2022-08-07T12:15:01.611Z,979.80
2022-08-07T12:16:06.663Z,979.83
2022-08-07T12:17:00.397Z,979.82
2022-08-07T12:18:01.064Z,979.76
2022-08-07T12:19:01.199Z,979.75
2022-08-07T12:20:04.932Z,979.69
2022-08-07T12:21:00.153Z,979.74
2022-08-07T12:22:37.280Z,979.70
2022-08-07T12:23:00.132Z,979.68
2022-08-07T12:24:06.705Z,979.65
2022-08-07T12:25:02.276Z,979.70
2022-08-07T12:26:06.082Z,979.71
2022-08-07T12:27:00.085Z,979.65
2022-08-07T12:28:08.837Z,979.64
2022-08-07T12:29:01.087Z,979.62
2022-08-07T12:30:00.065Z,979.59
2022-08-07T12:31:00.050Z,979.63
2022-08-07T12:32:03.771Z,979.71
2022-08-07T12:33:00.023Z,979.67
2022-08-07T12:34:01.941Z,979.59